sensor_id;sensor_type;location;lat;lon;timestamp;P1;durP1;ratioP1;P2;durP2;ratioP2
10440;SDS011;5268;49.346;9.522;2023-04-09T03:05:24;10.52;;;7.30;;
10440;SDS011;5268;49.346;9.522;2023-04-09T03:10:26;9.27;;;6.88;;
10440;SDS011;5268;49.346;9.522;2023-04-09T03:15:28;11.00;;;7.97;;
10440;SDS011;5268;49.346;9.522;2023-04-09T03:20:32;11.85;;;8.82;;
10440;SDS011;5268;49.346;9.522;2023-04-09T03:25:33;11.40;;;8.20;;
10440;SDS011;5268;49.346;9.522;2023-04-09T03:30:35;11.90;;;8.38;;
10440;SDS011;5268;49.346;9.522;2023-04-09T03:35:39;14.00;;;8.93;;
10440;SDS011;5268;49.346;9.522;2023-04-09T03:40:42;12.73;;;8.88;;
10440;SDS011;5268;49.346;9.522;2023-04-09T03:45:44;28.50;;;21.52;;
10440;SDS011;5268;49.346;9.522;2023-04-09T03:50:47;25.55;;;20.83;;
10440;SDS011;5268;49.346;9.522;2023-04-09T03:55:49;11.43;;;9.15;;
10440;SDS011;5268;49.346;9.522;2023-04-09T04:00:51;10.25;;;8.20;;
10440;SDS011;5268;49.346;9.522;2023-04-09T04:05:54;10.85;;;7.80;;
10440;SDS011;5268;49.346;9.522;2023-04-09T04:11:04;10.25;;;7.82;;
10440;SDS011;5268;49.346;9.522;2023-04-09T04:16:06;11.10;;;8.27;;
10440;SDS011;5268;49.346;9.522;2023-04-09T04:21:12;12.35;;;8.48;;
10440;SDS011;5268;49.346;9.522;2023-04-09T04:26:15;12.38;;;8.80;;
10440;SDS011;5268;49.346;9.522;2023-04-09T04:31:16;11.98;;;8.50;;
10440;SDS011;5268;49.346;9.522;2023-04-09T04:36:20;14.05;;;9.60;;
10440;SDS011;5268;49.346;9.522;2023-04-09T04:41:22;12.73;;;8.80;;
10440;SDS011;5268;49.346;9.522;2023-04-09T04:46:24;11.43;;;8.52;;
10440;SDS011;5268;49.346;9.522;2023-04-09T04:51:27;13.73;;;9.63;;
10440;SDS011;5268;49.346;9.522;2023-04-09T04:56:31;12.13;;;9.05;;
10440;SDS011;5268;49.346;9.522;2023-04-09T05:01:33;10.32;;;8.18;;
10440;SDS011;5268;49.346;9.522;2023-04-09T05:06:36;12.45;;;8.95;;
10440;SDS011;5268;49.346;9.522;2023-04-09T05:11:38;12.57;;;9.02;;
10440;SDS011;5268;49.346;9.522;2023-04-09T05:16:40;12.23;;;9.40;;
10440;SDS011;5268;49.346;9.522;2023-04-09T05:21:44;11.30;;;8.63;;
10440;SDS011;5268;49.346;9.522;2023-04-09T05:26:45;16.27;;;12.45;;
10440;SDS011;5268;49.346;9.522;2023-04-09T05:31:47;12.85;;;9.23;;
10440;SDS011;5268;49.346;9.522;2023-04-09T05:36:51;12.20;;;9.20;;
10440;SDS011;5268;49.346;9.522;2023-04-09T05:41:53;12.30;;;8.77;;
10440;SDS011;5268;49.346;9.522;2023-04-09T05:46:55;13.98;;;9.10;;
10440;SDS011;5268;49.346;9.522;2023-04-09T05:51:58;13.50;;;10.18;;
10440;SDS011;5268;49.346;9.522;2023-04-09T05:57:01;14.50;;;11.23;;
10440;SDS011;5268;49.346;9.522;2023-04-09T06:02:03;14.82;;;10.63;;
10440;SDS011;5268;49.346;9.522;2023-04-09T06:07:06;53.97;;;37.55;;
10440;SDS011;5268;49.346;9.522;2023-04-09T06:12:08;23.73;;;18.38;;
10440;SDS011;5268;49.346;9.522;2023-04-09T06:17:10;15.45;;;11.65;;
10440;SDS011;5268;49.346;9.522;2023-04-09T06:22:13;15.23;;;13.50;;
10440;SDS011;5268;49.346;9.522;2023-04-09T06:27:15;14.70;;;11.10;;
10440;SDS011;5268;49.346;9.522;2023-04-09T06:32:18;14.07;;;10.43;;
10440;SDS011;5268;49.346;9.522;2023-04-09T06:37:21;16.05;;;11.18;;
10440;SDS011;5268;49.346;9.522;2023-04-09T06:42:23;15.95;;;11.85;;
10440;SDS011;5268;49.346;9.522;2023-04-09T06:47:25;15.88;;;12.55;;
10440;SDS011;5268;49.346;9.522;2023-04-09T06:52:29;16.15;;;12.20;;
10440;SDS011;5268;49.346;9.522;2023-04-09T06:57:31;15.13;;;11.55;;
10440;SDS011;5268;49.346;9.522;2023-04-09T07:02:33;16.17;;;12.18;;
10440;SDS011;5268;49.346;9.522;2023-04-09T07:07:36;15.43;;;11.50;;
10440;SDS011;5268;49.346;9.522;2023-04-09T07:12:38;15.13;;;11.82;;
10440;SDS011;5268;49.346;9.522;2023-04-09T07:17:40;15.73;;;11.85;;
10440;SDS011;5268;49.346;9.522;2023-04-09T07:22:44;12.70;;;10.35;;
10440;SDS011;5268;49.346;9.522;2023-04-09T07:27:46;11.55;;;9.75;;
10440;SDS011;5268;49.346;9.522;2023-04-09T07:32:48;9.93;;;7.15;;
10440;SDS011;5268;49.346;9.522;2023-04-09T07:37:52;11.95;;;9.85;;
10440;SDS011;5268;49.346;9.522;2023-04-09T07:42:54;12.10;;;10.48;;
10440;SDS011;5268;49.346;9.522;2023-04-09T07:47:57;11.13;;;9.18;;
10440;SDS011;5268;49.346;9.522;2023-04-09T07:53:01;11.38;;;10.02;;
10440;SDS011;5268;49.346;9.522;2023-04-09T07:58:03;11.65;;;10.10;;
10440;SDS011;5268;49.346;9.522;2023-04-09T08:03:05;10.93;;;9.82;;
10440;SDS011;5268;49.346;9.522;2023-04-09T08:08:08;11.13;;;8.93;;
10440;SDS011;5268;49.346;9.522;2023-04-09T08:13:10;12.02;;;9.13;;
10440;SDS011;5268;49.346;9.522;2023-04-09T08:18:12;11.82;;;10.60;;
10440;SDS011;5268;49.346;9.522;2023-04-09T08:23:15;11.05;;;9.90;;
10440;SDS011;5268;49.346;9.522;2023-04-09T08:28:18;11.82;;;9.45;;
10440;SDS011;5268;49.346;9.522;2023-04-09T08:33:19;11.23;;;9.88;;
10440;SDS011;5268;49.346;9.522;2023-04-09T08:38:23;10.27;;;9.20;;
10440;SDS011;5268;49.346;9.522;2023-04-09T08:43:25;10.60;;;9.50;;
10440;SDS011;5268;49.346;9.522;2023-04-09T08:48:30;11.02;;;9.32;;
10440;SDS011;5268;49.346;9.522;2023-04-09T08:53:34;10.73;;;9.63;;
10440;SDS011;5268;49.346;9.522;2023-04-09T08:58:38;10.43;;;9.32;;
10440;SDS011;5268;49.346;9.522;2023-04-09T09:03:51;9.05;;;8.15;;
10440;SDS011;5268;49.346;9.522;2023-04-09T09:09:03;9.40;;;8.50;;
10440;SDS011;5268;49.346;9.522;2023-04-09T09:14:07;8.60;;;7.70;;
10440;SDS011;5268;49.346;9.522;2023-04-09T09:19:27;9.77;;;8.77;;
10440;SDS011;5268;49.346;9.522;2023-04-09T09:24:31;10.13;;;8.65;;
10440;SDS011;5268;49.346;9.522;2023-04-09T09:29:34;9.65;;;8.40;;
10440;SDS011;5268;49.346;9.522;2023-04-09T09:34:42;9.13;;;8.23;;
10440;SDS011;5268;49.346;9.522;2023-04-09T09:39:59;8.95;;;8.05;;
10440;SDS011;5268;49.346;9.522;2023-04-09T09:45:02;7.85;;;7.03;;
10440;SDS011;5268;49.346;9.522;2023-04-09T09:50:18;7.15;;;6.45;;
10440;SDS011;5268;49.346;9.522;2023-04-09T09:55:25;7.00;;;6.30;;
10440;SDS011;5268;49.346;9.522;2023-04-09T10:00:31;6.55;;;5.95;;
10440;SDS011;5268;49.346;9.522;2023-04-09T10:05:33;6.22;;;5.63;;
10440;SDS011;5268;49.346;9.522;2023-04-09T10:10:39;5.35;;;4.30;;
10440;SDS011;5268;49.346;9.522;2023-04-09T10:15:42;5.45;;;4.90;;
10440;SDS011;5268;49.346;9.522;2023-04-09T10:20:47;4.20;;;3.80;;
10440;SDS011;5268;49.346;9.522;2023-04-09T10:25:56;4.20;;;3.80;;
10440;SDS011;5268;49.346;9.522;2023-04-09T10:30:58;5.53;;;5.03;;
10440;SDS011;5268;49.346;9.522;2023-04-09T10:36:04;4.95;;;4.45;;
10440;SDS011;5268;49.346;9.522;2023-04-09T10:41:13;5.50;;;4.70;;
10440;SDS011;5268;49.346;9.522;2023-04-09T10:46:26;5.10;;;4.60;;
10440;SDS011;5268;49.346;9.522;2023-04-09T10:51:33;5.97;;;5.38;;
10440;SDS011;5268;49.346;9.522;2023-04-09T10:56:39;5.60;;;5.07;;
10440;SDS011;5268;49.346;9.522;2023-04-09T11:01:41;5.65;;;5.07;;
10440;SDS011;5268;49.346;9.522;2023-04-09T11:06:53;4.88;;;4.47;;
10440;SDS011;5268;49.346;9.522;2023-04-09T11:11:58;4.72;;;4.28;;
10440;SDS011;5268;49.346;9.522;2023-04-09T11:17:01;5.10;;;4.60;;
10440;SDS011;5268;49.346;9.522;2023-04-09T11:22:04;4.50;;;4.10;;
10440;SDS011;5268;49.346;9.522;2023-04-09T11:27:08;5.13;;;4.63;;
10440;SDS011;5268;49.346;9.522;2023-04-09T11:32:11;5.22;;;4.72;;
10440;SDS011;5268;49.346;9.522;2023-04-09T11:37:13;5.43;;;4.93;;
10440;SDS011;5268;49.346;9.522;2023-04-09T11:42:18;4.88;;;4.47;;
10440;SDS011;5268;49.346;9.522;2023-04-09T11:47:21;4.85;;;4.35;;
10440;SDS011;5268;49.346;9.522;2023-04-09T11:52:23;4.32;;;3.92;;
10440;SDS011;5268;49.346;9.522;2023-04-09T11:57:36;4.50;;;4.10;;
10440;SDS011;5268;49.346;9.522;2023-04-09T12:02:40;4.45;;;3.42;;
10440;SDS011;5268;49.346;9.522;2023-04-09T12:07:44;4.30;;;3.90;;
10440;SDS011;5268;49.346;9.522;2023-04-09T12:12:47;4.97;;;4.32;;
10440;SDS011;5268;49.346;9.522;2023-04-09T12:17:50;4.88;;;4.32;;
10440;SDS011;5268;49.346;9.522;2023-04-09T12:22:54;4.65;;;4.15;;
10440;SDS011;5268;49.346;9.522;2023-04-09T12:27:57;4.70;;;4.20;;
10440;SDS011;5268;49.346;9.522;2023-04-09T12:32:59;5.00;;;4.50;;
10440;SDS011;5268;49.346;9.522;2023-04-09T12:38:02;5.05;;;4.55;;
10440;SDS011;5268;49.346;9.522;2023-04-09T12:43:06;4.38;;;3.97;;
10440;SDS011;5268;49.346;9.522;2023-04-09T12:48:08;4.32;;;3.92;;
10440;SDS011;5268;49.346;9.522;2023-04-09T12:53:10;4.30;;;3.90;;
10440;SDS011;5268;49.346;9.522;2023-04-09T12:58:14;4.18;;;3.78;;
10440;SDS011;5268;49.346;9.522;2023-04-09T13:03:16;4.72;;;4.20;;
10440;SDS011;5268;49.346;9.522;2023-04-09T13:08:17;4.82;;;4.40;;
10440;SDS011;5268;49.346;9.522;2023-04-09T13:13:21;5.25;;;4.75;;
10440;SDS011;5268;49.346;9.522;2023-04-09T13:18:24;5.78;;;4.53;;
10440;SDS011;5268;49.346;9.522;2023-04-09T13:23:26;6.50;;;5.00;;
10440;SDS011;5268;49.346;9.522;2023-04-09T13:28:29;5.05;;;4.55;;
10440;SDS011;5268;49.346;9.522;2023-04-09T13:33:31;5.18;;;4.25;;
10440;SDS011;5268;49.346;9.522;2023-04-09T13:38:33;6.00;;;5.38;;
10440;SDS011;5268;49.346;9.522;2023-04-09T13:43:36;5.45;;;4.60;;
10440;SDS011;5268;49.346;9.522;2023-04-09T13:48:38;5.32;;;4.82;;
10440;SDS011;5268;49.346;9.522;2023-04-09T13:53:40;5.80;;;5.20;;
10440;SDS011;5268;49.346;9.522;2023-04-09T13:58:44;6.20;;;5.60;;
10440;SDS011;5268;49.346;9.522;2023-04-09T14:03:46;5.30;;;4.80;;
10440;SDS011;5268;49.346;9.522;2023-04-09T14:08:48;5.32;;;4.80;;
10440;SDS011;5268;49.346;9.522;2023-04-09T14:13:51;5.22;;;4.70;;
10440;SDS011;5268;49.346;9.522;2023-04-09T14:18:53;5.03;;;4.57;;
10440;SDS011;5268;49.346;9.522;2023-04-09T14:23:55;5.60;;;5.00;;
10440;SDS011;5268;49.346;9.522;2023-04-09T14:28:59;4.95;;;4.45;;
10440;SDS011;5268;49.346;9.522;2023-04-09T14:34:01;4.68;;;4.25;;
10440;SDS011;5268;49.346;9.522;2023-04-09T14:39:03;5.15;;;4.38;;
10440;SDS011;5268;49.346;9.522;2023-04-09T14:44:06;5.00;;;4.50;;
10440;SDS011;5268;49.346;9.522;2023-04-09T14:49:08;4.63;;;4.22;;
10440;SDS011;5268;49.346;9.522;2023-04-09T14:54:10;4.35;;;3.63;;
10440;SDS011;5268;49.346;9.522;2023-04-09T14:59:13;5.07;;;4.57;;
10440;SDS011;5268;49.346;9.522;2023-04-09T15:04:15;5.05;;;4.55;;
10440;SDS011;5268;49.346;9.522;2023-04-09T15:09:17;5.45;;;4.90;;
10440;SDS011;5268;49.346;9.522;2023-04-09T15:14:21;6.95;;;5.65;;
10440;SDS011;5268;49.346;9.522;2023-04-09T15:19:24;6.20;;;5.60;;
10440;SDS011;5268;49.346;9.522;2023-04-09T15:24:26;4.70;;;4.30;;
10440;SDS011;5268;49.346;9.522;2023-04-09T15:29:29;4.82;;;4.32;;
10440;SDS011;5268;49.346;9.522;2023-04-09T15:34:33;5.95;;;5.35;;
10440;SDS011;5268;49.346;9.522;2023-04-09T15:39:35;6.03;;;5.43;;
10440;SDS011;5268;49.346;9.522;2023-04-09T15:44:38;5.30;;;4.80;;
10440;SDS011;5268;49.346;9.522;2023-04-09T15:49:40;6.13;;;5.35;;
10440;SDS011;5268;49.346;9.522;2023-04-09T15:54:42;5.65;;;5.15;;
10440;SDS011;5268;49.346;9.522;2023-04-09T15:59:45;6.10;;;5.50;;
10440;SDS011;5268;49.346;9.522;2023-04-09T16:04:48;5.40;;;4.53;;
10440;SDS011;5268;49.346;9.522;2023-04-09T16:09:50;4.93;;;4.45;;
10440;SDS011;5268;49.346;9.522;2023-04-09T16:14:53;5.82;;;5.00;;
10440;SDS011;5268;49.346;9.522;2023-04-09T16:19:55;5.35;;;4.85;;
10440;SDS011;5268;49.346;9.522;2023-04-09T16:24:57;5.82;;;5.22;;
10440;SDS011;5268;49.346;9.522;2023-04-09T16:30:01;5.68;;;5.07;;
10440;SDS011;5268;49.346;9.522;2023-04-09T16:35:03;5.72;;;5.22;;
10440;SDS011;5268;49.346;9.522;2023-04-09T16:40:06;6.05;;;5.38;;
10440;SDS011;5268;49.346;9.522;2023-04-09T16:45:10;6.45;;;5.35;;
10440;SDS011;5268;49.346;9.522;2023-04-09T16:50:12;6.72;;;4.85;;
10440;SDS011;5268;49.346;9.522;2023-04-09T16:55:14;6.03;;;5.00;;
10440;SDS011;5268;49.346;9.522;2023-04-09T17:00:18;5.95;;;5.32;;
10440;SDS011;5268;49.346;9.522;2023-04-09T17:05:20;6.05;;;5.45;;
10440;SDS011;5268;49.346;9.522;2023-04-09T17:10:22;6.05;;;5.45;;
10440;SDS011;5268;49.346;9.522;2023-04-09T17:15:25;5.97;;;5.38;;
10440;SDS011;5268;49.346;9.522;2023-04-09T17:20:27;5.75;;;5.15;;
10440;SDS011;5268;49.346;9.522;2023-04-09T17:25:29;5.50;;;4.97;;
10440;SDS011;5268;49.346;9.522;2023-04-09T17:30:33;5.82;;;5.22;;
10440;SDS011;5268;49.346;9.522;2023-04-09T17:35:35;5.68;;;5.13;;
10440;SDS011;5268;49.346;9.522;2023-04-09T17:40:37;5.60;;;5.03;;
10440;SDS011;5268;49.346;9.522;2023-04-09T17:45:40;5.90;;;5.32;;
10440;SDS011;5268;49.346;9.522;2023-04-09T17:50:42;5.78;;;5.22;;
10440;SDS011;5268;49.346;9.522;2023-04-09T17:55:45;5.60;;;5.10;;
10440;SDS011;5268;49.346;9.522;2023-04-09T18:00:49;6.03;;;5.43;;
10440;SDS011;5268;49.346;9.522;2023-04-09T18:05:51;7.90;;;5.30;;
10440;SDS011;5268;49.346;9.522;2023-04-09T18:10:53;6.47;;;5.78;;
10440;SDS011;5268;49.346;9.522;2023-04-09T18:15:57;6.28;;;5.68;;
10440;SDS011;5268;49.346;9.522;2023-04-09T18:20:59;6.03;;;5.43;;
10440;SDS011;5268;49.346;9.522;2023-04-09T18:26:00;6.30;;;5.50;;
10440;SDS011;5268;49.346;9.522;2023-04-09T18:31:04;11.07;;;8.85;;
10440;SDS011;5268;49.346;9.522;2023-04-09T18:36:06;6.90;;;6.20;;
10440;SDS011;5268;49.346;9.522;2023-04-09T18:41:08;6.47;;;5.88;;
10440;SDS011;5268;49.346;9.522;2023-04-09T18:46:17;6.72;;;6.03;;
10440;SDS011;5268;49.346;9.522;2023-04-09T18:51:19;6.97;;;6.28;;
10440;SDS011;5268;49.346;9.522;2023-04-09T18:56:21;7.78;;;6.97;;
10440;SDS011;5268;49.346;9.522;2023-04-09T19:01:25;8.82;;;7.93;;
10440;SDS011;5268;49.346;9.522;2023-04-09T19:06:27;8.15;;;7.25;;
10440;SDS011;5268;49.346;9.522;2023-04-09T19:11:29;8.35;;;7.15;;
10440;SDS011;5268;49.346;9.522;2023-04-09T19:16:32;7.25;;;6.55;;
10440;SDS011;5268;49.346;9.522;2023-04-09T19:21:34;8.25;;;7.43;;
10440;SDS011;5268;49.346;9.522;2023-04-09T19:26:36;7.82;;;7.03;;
10440;SDS011;5268;49.346;9.522;2023-04-09T19:31:40;7.63;;;6.82;;
10440;SDS011;5268;49.346;9.522;2023-04-09T19:36:42;7.35;;;6.65;;
10440;SDS011;5268;49.346;9.522;2023-04-09T19:41:44;6.97;;;6.15;;
10440;SDS011;5268;49.346;9.522;2023-04-09T19:46:48;7.18;;;6.22;;
10440;SDS011;5268;49.346;9.522;2023-04-09T19:51:50;7.75;;;6.65;;
10440;SDS011;5268;49.346;9.522;2023-04-09T19:56:52;7.40;;;6.70;;
10440;SDS011;5268;49.346;9.522;2023-04-09T20:01:55;6.85;;;5.90;;
10440;SDS011;5268;49.346;9.522;2023-04-09T20:06:58;6.22;;;5.63;;
10440;SDS011;5268;49.346;9.522;2023-04-09T20:12:00;7.80;;;6.45;;
10440;SDS011;5268;49.346;9.522;2023-04-09T20:17:07;7.43;;;6.55;;
10440;SDS011;5268;49.346;9.522;2023-04-09T20:22:09;6.07;;;5.45;;
10440;SDS011;5268;49.346;9.522;2023-04-09T20:27:11;6.68;;;5.97;;
10440;SDS011;5268;49.346;9.522;2023-04-09T20:32:15;6.97;;;6.03;;
10440;SDS011;5268;49.346;9.522;2023-04-09T20:37:17;6.30;;;5.50;;
10440;SDS011;5268;49.346;9.522;2023-04-09T20:42:19;6.93;;;6.20;;
10440;SDS011;5268;49.346;9.522;2023-04-09T20:47:22;7.55;;;6.32;;
10440;SDS011;5268;49.346;9.522;2023-04-09T20:52:25;7.03;;;6.20;;
10440;SDS011;5268;49.346;9.522;2023-04-09T20:57:27;7.18;;;6.20;;
10440;SDS011;5268;49.346;9.522;2023-04-09T21:02:31;8.40;;;7.15;;
10440;SDS011;5268;49.346;9.522;2023-04-09T21:07:33;7.65;;;6.47;;
10440;SDS011;5268;49.346;9.522;2023-04-09T21:12:35;10.75;;;7.90;;
10440;SDS011;5268;49.346;9.522;2023-04-09T21:17:38;8.57;;;7.10;;
10440;SDS011;5268;49.346;9.522;2023-04-09T21:22:40;8.45;;;7.07;;
10440;SDS011;5268;49.346;9.522;2023-04-09T21:27:42;8.07;;;7.15;;
10440;SDS011;5268;49.346;9.522;2023-04-09T21:32:46;7.65;;;6.45;;
10440;SDS011;5268;49.346;9.522;2023-04-09T21:37:48;9.18;;;7.47;;
10440;SDS011;5268;49.346;9.522;2023-04-09T21:42:50;10.20;;;7.65;;
10440;SDS011;5268;49.346;9.522;2023-04-09T21:47:54;8.30;;;6.70;;
10440;SDS011;5268;49.346;9.522;2023-04-09T21:52:56;7.88;;;6.40;;
